Time;durP1;ratioP1;P1;durP2;ratioP2;P2;SDS_P1;SDS_P2;PMS_P1;PMS_P2;Temp;Humidity;BMP_temperature;BMP_pressure;BME280_temperature;BME280_humidity;BME280_pressure;Samples;Min_cycle;Max_cycle;Signal;HPM_P1;HPM_P2
2023/09/08 00:02:06;;;;;;;38.88;35.50;;;20.30;1.00;;;;;;5029708;28;20053;-64
2023/09/08 00:04:32;;;;;;;40.03;36.42;;;20.20;1.00;;;;;;5028741;28;20130;-63
2023/09/08 00:06:59;;;;;;;38.28;35.03;;;20.20;99.90;;;;;;5028089;28;20108;-63
2023/09/08 00:09:24;;;;;;;38.25;35.05;;;20.00;99.90;;;;;;5030987;28;20033;-64
2023/09/08 00:11:50;;;;;;;38.55;35.22;;;20.10;99.90;;;;;;5029701;28;20040;-65
2023/09/08 00:14:15;;;;;;;38.13;34.63;;;20.10;1.00;;;;;;5028438;28;20130;-64
2023/09/08 00:16:42;;;;;;;36.28;33.17;;;20.10;1.00;;;;;;5027928;28;20052;-65
2023/09/08 00:19:09;;;;;;;37.42;34.13;;;20.10;51.10;;;;;;5031224;28;20041;-64
2023/09/08 00:21:36;;;;;;;36.75;33.63;;;20.10;99.90;;;;;;5030973;28;20044;-64
2023/09/08 00:24:01;;;;;;;37.08;33.85;;;20.20;99.90;;;;;;5028632;28;20432;-59
2023/09/08 00:26:27;;;;;;;36.20;33.00;;;20.20;99.90;;;;;;5028417;28;20041;-60
2023/09/08 00:28:52;;;;;;;36.75;33.17;;;20.30;99.90;;;;;;5032150;28;20043;-60
2023/09/08 00:31:18;;;;;;;36.75;33.47;;;20.10;99.90;;;;;;5027988;28;20499;-60
2023/09/08 00:33:44;;;;;;;36.42;33.22;;;20.10;99.90;;;;;;5028415;28;20116;-61
2023/09/08 00:36:10;;;;;;;36.67;33.47;;;20.20;99.90;;;;;;5033291;28;20041;-60
2023/09/08 00:38:35;;;;;;;37.38;34.03;;;20.10;99.90;;;;;;5029707;28;20503;-60
2023/09/08 00:41:01;;;;;;;37.40;34.10;;;20.20;1.00;;;;;;5029865;28;20068;-59
2023/09/08 00:43:27;;;;;;;38.05;34.92;;;20.10;1.00;;;;;;5028243;28;20103;-60
2023/09/08 00:45:55;;;;;;;35.97;32.97;;;20.10;1.00;;;;;;5027251;28;20044;-60
2023/09/08 00:48:20;;;;;;;37.72;34.17;;;20.10;8.00;;;;;;5027710;28;20033;-59
2023/09/08 00:50:46;;;;;;;37.78;34.47;;;20.30;46.90;;;;;;5034053;28;20130;-60
2023/09/08 00:53:12;;;;;;;35.90;32.88;;;20.10;95.30;;;;;;5032806;28;20082;-60
2023/09/08 00:55:39;;;;;;;37.88;34.72;;;20.00;99.90;;;;;;5030552;28;20479;-59
2023/09/08 00:58:05;;;;;;;38.13;34.83;;;19.90;99.90;;;;;;5038333;28;20446;-60
2023/09/08 01:00:32;;;;;;;37.45;34.30;;;19.80;99.90;;;;;;5028249;28;20057;-62
2023/09/08 01:02:58;;;;;;;38.22;34.90;;;19.80;99.90;;;;;;5032823;28;20419;-60
2023/09/08 01:05:24;;;;;;;40.15;36.22;;;19.70;99.90;;;;;;5032132;28;20037;-59
2023/09/08 01:07:51;;;;;;;38.83;35.33;;;19.90;99.90;;;;;;5042413;28;20039;-59
2023/09/08 01:10:17;;;;;;;38.35;34.85;;;19.80;99.90;;;;;;5035246;28;20044;-59
2023/09/08 01:12:43;;;;;;;39.13;35.63;;;19.60;1.00;;;;;;5032400;28;20539;-60
2023/09/08 01:15:09;;;;;;;41.03;37.38;;;19.60;1.00;;;;;;5032325;28;20045;-59
2023/09/08 01:17:34;;;;;;;39.35;35.70;;;19.60;1.00;;;;;;5035490;28;20132;-59
2023/09/08 01:20:11;;;;;;;40.67;37.03;;;19.60;29.80;;;;;;5032626;28;20073;-59
2023/09/08 01:22:58;;;;;;;40.97;37.47;;;19.50;99.90;;;;;;5031302;28;20045;-59
2023/09/08 01:25:28;;;;;;;41.60;37.70;;;19.50;99.90;;;;;;5031131;28;20068;-59
2023/09/08 01:27:55;;;;;;;40.97;37.20;;;19.40;99.90;;;;;;5030115;28;20033;-59
2023/09/08 01:30:23;;;;;;;40.80;37.30;;;19.20;99.90;;;;;;5024153;28;20044;-61
2023/09/08 01:32:50;;;;;;;42.28;38.55;;;19.20;1.00;;;;;;5021794;28;20400;-60
2023/09/08 01:35:16;;;;;;;42.03;38.42;;;19.20;1.00;;;;;;5030338;28;20091;-60
2023/09/08 01:37:46;;;;;;;41.47;37.88;;;19.10;1.00;;;;;;5027761;28;20041;-59
2023/09/08 01:40:12;;;;;;;42.03;38.30;;;19.00;59.40;;;;;;5027328;28;20044;-60
2023/09/08 01:42:38;;;;;;;43.08;39.38;;;19.00;99.90;;;;;;5031455;28;20045;-59
2023/09/08 01:45:05;;;;;;;43.42;39.72;;;19.20;99.90;;;;;;5025945;28;20403;-59
2023/09/08 01:47:31;;;;;;;42.80;38.92;;;19.20;99.90;;;;;;5026812;28;20044;-60
2023/09/08 01:49:56;;;;;;;43.47;39.55;;;19.10;99.90;;;;;;5031025;28;20415;-60
2023/09/08 01:52:22;;;;;;;44.08;40.38;;;19.00;1.00;;;;;;5032763;28;20589;-63
2023/09/08 01:54:47;;;;;;;43.78;39.90;;;19.00;1.00;;;;;;5027440;28;20495;-59
2023/09/08 01:57:13;;;;;;;43.08;39.47;;;18.80;1.00;;;;;;5028657;28;20065;-59
2023/09/08 01:59:39;;;;;;;44.05;40.42;;;18.80;15.00;;;;;;5027360;28;20033;-59
2023/09/08 02:02:04;;;;;;;42.85;39.15;;;19.00;51.80;;;;;;5026879;28;20395;-60
2023/09/08 02:04:30;;;;;;;46.30;42.35;;;19.00;99.90;;;;;;5030961;28;20519;-60
2023/09/08 02:06:55;;;;;;;47.47;43.47;;;18.90;99.90;;;;;;5025024;28;20040;-60
2023/09/08 02:09:21;;;;;;;46.70;42.80;;;19.00;99.90;;;;;;5029433;28;20043;-60
2023/09/08 02:11:47;;;;;;;46.67;42.67;;;18.90;99.90;;;;;;5028366;28;20167;-60
2023/09/08 02:14:13;;;;;;;47.67;43.22;;;19.00;99.90;;;;;;5029165;28;20548;-60
2023/09/08 02:16:39;;;;;;;47.92;43.97;;;18.90;99.90;;;;;;5027717;28;20056;-60
2023/09/08 02:19:05;;;;;;;46.75;42.72;;;18.90;99.90;;;;;;5026657;28;20132;-60
2023/09/08 02:21:30;;;;;;;46.08;42.08;;;19.10;99.90;;;;;;5024147;28;20582;-60
2023/09/08 02:23:56;;;;;;;44.00;40.17;;;19.00;99.90;;;;;;5026151;28;20416;-60
2023/09/08 02:26:21;;;;;;;44.47;40.58;;;19.20;99.90;;;;;;5024394;28;20091;-60
2023/09/08 02:28:47;;;;;;;44.33;40.63;;;18.90;99.90;;;;;;5027954;28;20399;-60
2023/09/08 02:31:12;;;;;;;45.25;41.35;;;19.10;99.90;;;;;;5030132;28;20037;-59
2023/09/08 02:33:38;;;;;;;45.38;40.95;;;19.30;99.90;;;;;;5026107;28;20435;-60
2023/09/08 02:36:05;;;;;;;42.97;39.10;;;19.00;99.90;;;;;;5027625;28;20399;-60
2023/09/08 02:38:34;;;;;;;44.65;40.75;;;19.20;99.90;;;;;;5036606;28;20509;-59
2023/09/08 02:40:59;;;;;;;44.97;40.97;;;19.10;99.90;;;;;;5032958;28;20170;-60
2023/09/08 02:43:25;;;;;;;46.42;42.35;;;19.10;99.90;;;;;;5029736;28;20879;-60
2023/09/08 02:45:50;;;;;;;45.72;41.38;;;18.80;99.90;;;;;;5034742;28;20491;-60
2023/09/08 02:48:16;;;;;;;45.47;41.45;;;19.00;99.90;;;;;;5037101;28;20037;-59
2023/09/08 02:50:43;;;;;;;45.28;41.38;;;18.90;99.90;;;;;;5024507;28;20048;-59
2023/09/08 02:53:08;;;;;;;42.70;39.05;;;19.00;99.90;;;;;;5022196;28;20042;-59
2023/09/08 02:55:34;;;;;;;44.47;40.78;;;19.00;99.90;;;;;;5031871;28;20045;-59
2023/09/08 02:57:59;;;;;;;44.13;40.47;;;18.90;99.90;;;;;;5026302;28;20101;-59
2023/09/08 03:00:25;;;;;;;44.97;40.88;;;18.80;99.90;;;;;;5028517;28;20056;-59
2023/09/08 03:02:51;;;;;;;46.70;42.63;;;18.80;99.90;;;;;;5023140;28;20056;-59
2023/09/08 03:05:16;;;;;;;46.00;41.88;;;18.70;99.90;;;;;;5030667;28;20037;-59
2023/09/08 03:07:42;;;;;;;45.08;41.22;;;18.60;99.90;;;;;;5026482;28;20044;-59
2023/09/08 03:10:08;;;;;;;47.75;43.60;;;18.60;99.90;;;;;;5025061;28;20041;-60
2023/09/08 03:12:34;;;;;;;44.22;40.50;;;18.60;99.90;;;;;;5027121;28;20517;-58
2023/09/08 03:15:01;;;;;;;44.53;41.03;;;18.70;99.90;;;;;;5031044;28;20069;-58
2023/09/08 03:17:27;;;;;;;43.90;40.25;;;18.80;99.90;;;;;;5026300;28;20048;-61
2023/09/08 03:19:53;;;;;;;46.30;42.60;;;18.60;99.90;;;;;;5035618;28;20398;-59
2023/09/08 03:22:18;;;;;;;46.53;42.72;;;18.70;99.90;;;;;;5027570;28;20044;-58
2023/09/08 03:24:44;;;;;;;45.47;41.78;;;18.70;99.90;;;;;;5029435;28;20044;-59
2023/09/08 03:27:09;;;;;;;44.20;40.67;;;18.60;99.90;;;;;;5026664;28;20033;-59
2023/09/08 03:29:35;;;;;;;44.67;41.17;;;18.40;99.90;;;;;;5029103;28;20099;-58
2023/09/08 03:32:00;;;;;;;47.22;43.42;;;18.50;99.90;;;;;;5022808;28;20352;-58
2023/09/08 03:34:26;;;;;;;46.47;42.33;;;18.70;99.90;;;;;;5033610;28;20798;-59
2023/09/08 03:36:53;;;;;;;47.97;44.15;;;18.40;99.90;;;;;;5026629;28;20402;-59
2023/09/08 03:39:19;;;;;;;45.45;41.67;;;18.40;99.90;;;;;;5029963;28;20491;-58
2023/09/08 03:41:45;;;;;;;45.70;42.05;;;18.00;99.90;;;;;;5023749;28;20067;-60
2023/09/08 03:44:11;;;;;;;47.08;43.08;;;18.00;99.90;;;;;;5034347;28;20037;-58
2023/09/08 03:46:37;;;;;;;48.33;44.22;;;18.00;99.90;;;;;;5029112;28;20045;-59
2023/09/08 03:49:02;;;;;;;47.75;43.97;;;18.20;99.90;;;;;;5031319;28;20457;-58
2023/09/08 03:51:28;;;;;;;46.95;43.15;;;17.80;99.90;;;;;;5033223;28;20044;-59
2023/09/08 03:53:54;;;;;;;47.22;42.95;;;18.00;99.90;;;;;;5032816;28;20045;-60
2023/09/08 03:56:20;;;;;;;45.03;41.28;;;18.10;99.90;;;;;;5023792;28;20033;-61
2023/09/08 03:58:46;;;;;;;46.55;42.72;;;17.90;99.90;;;;;;5034108;28;20608;-60
2023/09/08 04:01:11;;;;;;;47.00;43.15;;;18.30;99.90;;;;;;5033978;28;20056;-60
2023/09/08 04:03:37;;;;;;;45.42;41.78;;;18.10;99.90;;;;;;5029694;28;20467;-63
2023/09/08 04:06:04;;;;;;;46.33;42.53;;;18.30;99.90;;;;;;5033064;28;20049;-63
2023/09/08 04:08:29;;;;;;;44.78;41.22;;;18.40;99.90;;;;;;5025932;28;20399;-62
2023/09/08 04:10:55;;;;;;;45.17;41.35;;;18.30;99.90;;;;;;5033686;28;20095;-63
2023/09/08 04:13:20;;;;;;;46.83;42.80;;;18.30;99.90;;;;;;5022176;28;20051;-63
2023/09/08 04:15:46;;;;;;;46.40;42.67;;;18.00;99.90;;;;;;5029044;28;20075;-62
2023/09/08 04:18:11;;;;;;;45.97;42.10;;;18.10;99.90;;;;;;5021799;28;20030;-62
2023/09/08 04:20:37;;;;;;;46.42;42.47;;;18.00;99.90;;;;;;5032640;28;20033;-62
2023/09/08 04:23:02;;;;;;;47.67;43.78;;;18.00;99.90;;;;;;5028680;28;20133;-63
2023/09/08 04:25:28;;;;;;;46.53;42.70;;;18.30;99.90;;;;;;5028174;28;20040;-62
2023/09/08 04:27:54;;;;;;;45.42;41.58;;;18.20;99.90;;;;;;5022606;28;20040;-62
2023/09/08 04:30:19;;;;;;;46.55;42.85;;;18.00;99.90;;;;;;5032762;28;20041;-62
2023/09/08 04:32:45;;;;;;;43.67;40.22;;;18.20;99.90;;;;;;5024925;28;20073;-62
2023/09/08 04:35:11;;;;;;;49.47;45.25;;;17.80;99.90;;;;;;5028223;28;20077;-63
2023/09/08 04:37:37;;;;;;;47.38;43.55;;;18.10;99.90;;;;;;5022290;28;20112;-63
2023/09/08 04:40:03;;;;;;;48.20;44.10;;;17.90;99.90;;;;;;5023871;28;20128;-62
2023/09/08 04:42:29;;;;;;;48.63;44.83;;;18.20;99.90;;;;;;5024588;28;20132;-62
2023/09/08 04:44:55;;;;;;;47.22;43.40;;;18.30;99.90;;;;;;5027085;28;20033;-63
2023/09/08 04:47:20;;;;;;;48.50;44.50;;;17.60;99.90;;;;;;5027902;28;20458;-62
2023/09/08 04:49:46;;;;;;;47.83;43.88;;;17.90;99.90;;;;;;5028469;28;20045;-62
2023/09/08 04:52:12;;;;;;;48.67;44.72;;;17.50;99.90;;;;;;5031976;28;20047;-63
2023/09/08 04:54:37;;;;;;;47.78;43.88;;;17.70;99.90;;;;;;5025222;28;20033;-63
2023/09/08 04:57:03;;;;;;;49.03;44.92;;;17.70;99.90;;;;;;5027757;28;20041;-63
2023/09/08 04:59:29;;;;;;;50.70;46.35;;;17.30;99.90;;;;;;5028152;28;20053;-62
2023/09/08 05:01:54;;;;;;;49.97;45.88;;;17.70;99.90;;;;;;5030178;28;20119;-62
2023/09/08 05:04:20;;;;;;;51.95;47.67;;;17.70;99.90;;;;;;5030513;28;20133;-62
2023/09/08 05:06:46;;;;;;;53.03;48.10;;;17.40;99.90;;;;;;5026486;28;20088;-62
2023/09/08 05:09:12;;;;;;;53.83;49.58;;;17.60;99.90;;;;;;5023411;28;20452;-62
2023/09/08 05:11:38;;;;;;;50.65;46.35;;;17.20;99.90;;;;;;5020341;28;20136;-62
2023/09/08 05:14:04;;;;;;;52.90;48.65;;;17.50;99.90;;;;;;5028110;28;20132;-63
2023/09/08 05:16:45;;;;;;;53.95;49.38;;;17.60;99.90;;;;;;5026416;28;20049;-63
2023/09/08 05:19:15;;;;;;;51.90;47.83;;;17.70;99.90;;;;;;5025751;28;20068;-62
2023/09/08 05:21:41;;;;;;;51.33;47.00;;;17.70;99.90;;;;;;5025112;28;20071;-62
2023/09/08 05:24:07;;;;;;;52.42;47.88;;;17.60;99.90;;;;;;5026087;28;20692;-58
2023/09/08 05:26:36;;;;;;;55.00;50.13;;;17.80;99.90;;;;;;5026975;28;20329;-59
2023/09/08 05:29:01;;;;;;;55.38;50.72;;;17.80;99.90;;;;;;5026515;28;20041;-61
2023/09/08 05:31:27;;;;;;;54.03;49.40;;;17.90;99.90;;;;;;5028522;28;20029;-60
2023/09/08 05:33:52;;;;;;;53.10;48.92;;;18.00;99.90;;;;;;5026548;28;20037;-59
2023/09/08 05:36:18;;;;;;;55.22;50.50;;;18.00;99.90;;;;;;5024925;28;20403;-59
2023/09/08 05:38:43;;;;;;;52.53;48.33;;;17.90;99.90;;;;;;5024756;28;20041;-61
2023/09/08 05:41:09;;;;;;;52.72;48.28;;;17.80;99.90;;;;;;5028293;28;20041;-60
2023/09/08 05:43:35;;;;;;;51.97;47.70;;;18.10;99.90;;;;;;5026924;28;20041;-62
2023/09/08 05:46:00;;;;;;;49.83;45.53;;;17.70;99.90;;;;;;5027709;28;20068;-60
2023/09/08 05:48:26;;;;;;;52.38;47.88;;;17.70;99.90;;;;;;5030819;28;21453;-60
2023/09/08 05:50:51;;;;;;;54.33;49.72;;;17.70;99.90;;;;;;5027379;28;20499;-60
2023/09/08 05:53:17;;;;;;;52.65;46.97;;;18.30;99.90;;;;;;5030205;28;20633;-62
2023/09/08 05:55:42;;;;;;;52.63;48.22;;;17.80;99.90;;;;;;5030890;28;20041;-61
2023/09/08 05:58:08;;;;;;;53.42;48.97;;;18.20;99.90;;;;;;5031973;28;20121;-60
2023/09/08 06:00:34;;;;;;;52.08;47.67;;;18.30;99.90;;;;;;5030861;28;20053;-60
2023/09/08 06:02:59;;;;;;;50.72;46.65;;;18.20;99.90;;;;;;5029793;28;20045;-61
2023/09/08 06:05:25;;;;;;;50.97;46.88;;;18.40;99.90;;;;;;5029334;28;20117;-60
2023/09/08 06:07:50;;;;;;;51.95;47.60;;;18.00;99.90;;;;;;5030117;28;20475;-61
2023/09/08 06:10:16;;;;;;;51.33;46.88;;;18.20;99.90;;;;;;5030224;28;20084;-61
2023/09/08 06:12:43;;;;;;;53.72;48.67;;;18.30;99.90;;;;;;5030402;28;20037;-61
2023/09/08 06:15:08;;;;;;;53.13;48.33;;;18.40;99.90;;;;;;5033066;28;20037;-63
2023/09/08 06:17:34;;;;;;;55.10;49.95;;;18.40;99.90;;;;;;5026926;28;20541;-65
2023/09/08 06:20:00;;;;;;;51.05;46.22;;;18.50;99.90;;;;;;5030488;28;20034;-60
2023/09/08 06:22:25;;;;;;;50.88;46.10;;;19.10;99.90;;;;;;5030080;28;20037;-60
2023/09/08 06:24:51;;;;;;;50.50;46.20;;;18.90;99.90;;;;;;5028530;28;20073;-60
2023/09/08 06:27:17;;;;;;;50.92;46.63;;;18.80;99.90;;;;;;5023542;28;20038;-60
2023/09/08 06:29:43;;;;;;;49.25;44.92;;;19.00;99.90;;;;;;5028234;28;20037;-61
2023/09/08 06:32:10;;;;;;;52.42;47.78;;;19.30;99.90;;;;;;5026404;28;20423;-61
2023/09/08 06:34:35;;;;;;;49.72;45.33;;;19.10;99.90;;;;;;5025284;28;20065;-61
2023/09/08 06:37:01;;;;;;;48.88;44.75;;;19.30;99.90;;;;;;5028626;28;20580;-61
2023/09/08 06:39:28;;;;;;;48.70;44.45;;;19.60;99.90;;;;;;5044848;28;20069;-61
2023/09/08 06:41:53;;;;;;;49.80;45.50;;;19.30;99.90;;;;;;5030756;28;20044;-61
2023/09/08 06:44:20;;;;;;;47.05;42.88;;;19.40;99.90;;;;;;5027274;28;20041;-60
2023/09/08 06:46:46;;;;;;;48.85;44.53;;;19.50;99.90;;;;;;5026055;28;20034;-60
2023/09/08 06:49:12;;;;;;;49.92;45.08;;;19.90;99.90;;;;;;5027215;28;20044;-60
2023/09/08 06:51:38;;;;;;;45.65;41.55;;;20.00;99.90;;;;;;5019451;28;20496;-62
2023/09/08 06:54:04;;;;;;;46.97;42.67;;;20.00;99.90;;;;;;5028623;28;20049;-61
2023/09/08 06:56:30;;;;;;;46.80;42.80;;;20.30;99.90;;;;;;5027895;28;20410;-62
2023/09/08 06:58:57;;;;;;;45.25;41.25;;;20.30;99.90;;;;;;5029150;28;20046;-61
2023/09/08 07:01:23;;;;;;;44.75;40.53;;;20.40;99.90;;;;;;5031001;28;20049;-61
2023/09/08 07:03:49;;;;;;;44.85;40.63;;;20.30;99.90;;;;;;5044478;28;20045;-61
2023/09/08 07:06:15;;;;;;;45.17;41.05;;;20.60;99.90;;;;;;5027795;28;20553;-62
2023/09/08 07:08:41;;;;;;;45.33;41.47;;;20.60;99.90;;;;;;5030164;28;20472;-61
2023/09/08 07:11:07;;;;;;;42.35;38.72;;;20.80;99.90;;;;;;5029626;28;20116;-62
2023/09/08 07:13:33;;;;;;;43.95;40.25;;;20.80;99.90;;;;;;5030311;28;20120;-62
2023/09/08 07:15:58;;;;;;;43.90;39.95;;;20.70;99.90;;;;;;5024943;28;20120;-62
2023/09/08 07:18:24;;;;;;;41.75;38.25;;;21.10;99.90;;;;;;5029388;28;20029;-61
2023/09/08 07:20:50;;;;;;;42.83;39.22;;;21.20;99.90;;;;;;5029583;28;20140;-61
2023/09/08 07:23:18;;;;;;;40.88;37.33;;;21.40;99.90;;;;;;5026992;28;20431;-62
2023/09/08 07:25:50;;;;;;;38.10;34.92;;;21.50;99.90;;;;;;5024943;28;20021;-64
2023/09/08 07:28:16;;;;;;;38.03;34.70;;;21.60;99.90;;;;;;5020714;28;20143;-63
2023/09/08 07:30:42;;;;;;;37.35;33.97;;;21.50;99.90;;;;;;5027860;28;20124;-61
2023/09/08 07:33:08;;;;;;;38.83;35.47;;;21.60;99.90;;;;;;5027613;28;20131;-61
2023/09/08 07:35:38;;;;;;;37.20;33.85;;;21.90;99.90;;;;;;5023922;28;20037;-62
2023/09/08 07:38:03;;;;;;;34.95;31.98;;;21.90;99.90;;;;;;5023573;28;20041;-61
2023/09/08 07:40:29;;;;;;;36.67;33.45;;;22.20;99.90;;;;;;5029283;28;20048;-63
2023/09/08 07:42:55;;;;;;;34.70;31.80;;;22.30;99.90;;;;;;5029492;28;20069;-62
2023/09/08 07:45:20;;;;;;;34.83;31.63;;;22.50;99.90;;;;;;5028487;28;20095;-61
2023/09/08 07:47:46;;;;;;;34.55;31.33;;;22.50;99.90;;;;;;5024174;28;20486;-61
2023/09/08 07:50:26;;;;;;;29.85;27.20;;;22.70;99.90;;;;;;5027390;28;20870;-61
2023/09/08 07:52:54;;;;;;;26.98;24.48;;;23.00;99.90;;;;;;5026742;28;20470;-62
2023/09/08 07:55:22;;;;;;;28.40;26.05;;;23.50;99.90;;;;;;5028473;28;20133;-64
2023/09/08 07:57:49;;;;;;;24.92;22.90;;;24.20;99.90;;;;;;5029784;28;20041;-65
2023/09/08 08:00:15;;;;;;;24.95;22.65;;;24.60;66.00;;;;;;5028902;28;20088;-64
2023/09/08 08:02:47;;;;;;;22.67;20.70;;;25.10;32.40;;;;;;5028839;28;20052;-63
2023/09/08 08:05:12;;;;;;;22.65;20.58;;;25.40;99.90;;;;;;5027183;28;20044;-65
2023/09/08 08:07:39;;;;;;;23.42;21.25;;;25.80;74.90;;;;;;5027467;28;20029;-65
2023/09/08 08:10:05;;;;;;;22.25;20.10;;;26.00;99.90;;;;;;5022182;28;20064;-65
2023/09/08 08:12:31;;;;;;;23.05;20.80;;;26.20;99.90;;;;;;5027818;28;20042;-65
2023/09/08 08:14:58;;;;;;;22.45;20.40;;;26.60;99.90;;;;;;5027939;28;20034;-65
2023/09/08 08:17:24;;;;;;;23.30;21.30;;;26.60;99.90;;;;;;5025038;28;20466;-64
2023/09/08 08:19:50;;;;;;;24.20;21.80;;;26.50;99.90;;;;;;5025572;28;20069;-65
2023/09/08 08:22:15;;;;;;;24.70;22.08;;;26.60;99.90;;;;;;5025510;28;20149;-64
2023/09/08 08:24:41;;;;;;;24.33;22.15;;;26.60;1.00;;;;;;5028789;28;20514;-65
2023/09/08 08:27:06;;;;;;;23.67;21.17;;;26.60;1.00;;;;;;5027557;28;20037;-64
2023/09/08 08:29:32;;;;;;;21.80;19.90;;;26.80;99.90;;;;;;5027160;28;20116;-64
2023/09/08 08:31:57;;;;;;;26.35;23.88;;;27.10;99.90;;;;;;5029865;28;20472;-64
2023/09/08 08:34:23;;;;;;;25.30;23.00;;;27.30;99.90;;;;;;5026194;28;20034;-64
2023/09/08 08:36:49;;;;;;;23.98;21.85;;;27.40;99.90;;;;;;5027698;28;20395;-65
2023/09/08 08:39:14;;;;;;;25.33;22.85;;;27.40;99.90;;;;;;5025889;28;20124;-65
2023/09/08 08:41:43;;;;;;;23.38;21.10;;;27.90;99.90;;;;;;5029575;28;20044;-64
2023/09/08 08:44:08;;;;;;;21.17;19.30;;;27.90;99.90;;;;;;5027613;28;20122;-65
2023/09/08 08:46:36;;;;;;;21.48;19.45;;;28.30;94.20;;;;;;5026857;28;20033;-65
2023/09/08 08:49:06;;;;;;;23.60;21.50;;;28.60;42.40;;;;;;5028429;28;21297;-65
2023/09/08 08:51:32;;;;;;;21.08;19.13;;;28.70;1.00;;;;;;5025742;28;20038;-65
2023/09/08 08:53:58;;;;;;;25.02;22.75;;;28.90;1.00;;;;;;5026112;28;20048;-65
2023/09/08 08:56:23;;;;;;;34.83;31.92;;;28.70;1.00;;;;;;5026717;28;20091;-65
2023/09/08 08:58:50;;;;;;;51.70;46.95;;;28.80;1.00;;;;;;5029023;28;20047;-65
2023/09/08 09:01:18;;;;;;;54.85;49.72;;;28.80;1.00;;;;;;5022786;28;20056;-65
2023/09/08 09:03:49;;;;;;;56.35;51.50;;;28.90;1.00;;;;;;5028389;28;20042;-63
2023/09/08 09:06:15;;;;;;;70.53;64.25;;;29.30;1.00;;;;;;5025604;28;20041;-64
2023/09/08 09:08:44;;;;;;;72.38;66.45;;;29.50;99.90;;;;;;5028499;28;20068;-64
2023/09/08 09:11:11;;;;;;;105.95;96.82;;;29.80;99.90;;;;;;5026953;28;20037;-64
2023/09/08 09:13:37;;;;;;;92.10;84.45;;;29.80;99.90;;;;;;5025419;28;20554;-64
2023/09/08 09:16:03;;;;;;;82.28;75.60;;;29.90;99.90;;;;;;5024833;28;20041;-64
2023/09/08 09:18:30;;;;;;;101.82;94.28;;;30.10;99.90;;;;;;5030465;28;20037;-64
2023/09/08 09:20:59;;;;;;;101.38;94.22;;;30.40;99.90;;;;;;5031438;28;20056;-64
2023/09/08 09:23:30;;;;;;;81.68;75.78;;;30.40;99.90;;;;;;5028796;28;20045;-64
2023/09/08 09:25:55;;;;;;;63.80;59.20;;;30.70;99.90;;;;;;5030298;28;20478;-64
2023/09/08 09:28:21;;;;;;;14.32;12.93;;;30.80;99.90;;;;;;5028847;28;20069;-65
2023/09/08 09:30:49;;;;;;;16.48;11.52;;;30.80;99.90;;;;;;5031734;28;20029;-64
2023/09/08 09:33:15;;;;;;;13.15;10.40;;;31.00;99.90;;;;;;5027777;28;20165;-64
2023/09/08 09:35:46;;;;;;;12.20;10.10;;;30.90;99.90;;;;;;5029141;28;20161;-64
2023/09/08 09:38:13;;;;;;;12.98;10.82;;;31.10;99.90;;;;;;5029693;28;20049;-65
2023/09/08 09:40:39;;;;;;;13.23;10.15;;;31.20;99.90;;;;;;5032996;28;20073;-64
2023/09/08 09:43:06;;;;;;;18.27;10.65;;;31.30;99.90;;;;;;5028031;28;20037;-64
2023/09/08 09:45:33;;;;;;;11.82;10.15;;;31.40;99.90;;;;;;5030890;28;20064;-64
2023/09/08 09:47:59;;;;;;;12.13;10.50;;;31.50;99.90;;;;;;5025674;28;20052;-64
2023/09/08 09:50:36;;;;;;;14.40;10.43;;;31.30;99.90;;;;;;5027743;28;20488;-64
2023/09/08 09:53:12;;;;;;;13.77;10.55;;;31.20;99.90;;;;;;5030363;28;20148;-64
2023/09/08 09:55:39;;;;;;;12.88;9.93;;;31.10;99.90;;;;;;5031114;28;20443;-64
2023/09/08 09:58:06;;;;;;;14.57;10.27;;;31.20;99.90;;;;;;5025301;28;20419;-62
2023/09/08 10:00:33;;;;;;;11.65;10.30;;;31.20;99.90;;;;;;5027500;28;20069;-61
2023/09/08 10:02:59;;;;;;;13.75;10.88;;;31.30;99.90;;;;;;5044852;28;20105;-61
2023/09/08 10:05:27;;;;;;;11.85;10.38;;;31.20;99.90;;;;;;5030172;28;20045;-61
2023/09/08 10:07:53;;;;;;;12.85;10.38;;;30.80;99.90;;;;;;5028119;28;20121;-62
2023/09/08 10:10:20;;;;;;;14.07;10.90;;;30.50;99.90;;;;;;5030331;28;20048;-61
2023/09/08 10:13:01;;;;;;;12.10;10.75;;;30.20;99.90;;;;;;5024095;28;20128;-61
2023/09/08 10:15:28;;;;;;;10.20;9.05;;;30.00;99.90;;;;;;5031865;28;20037;-63
2023/09/08 10:17:55;;;;;;;15.07;10.00;;;29.90;99.90;;;;;;5028983;28;20124;-63
2023/09/08 10:20:23;;;;;;;12.65;9.57;;;29.90;99.90;;;;;;5027175;28;20084;-63
2023/09/08 10:22:53;;;;;;;19.98;9.25;;;29.70;99.90;;;;;;5030412;28;20483;-64
2023/09/08 10:25:23;;;;;;;10.55;9.45;;;29.70;99.90;;;;;;5024173;28;20029;-63
2023/09/08 10:27:49;;;;;;;13.18;9.88;;;29.70;99.90;;;;;;5029858;28;20025;-63
2023/09/08 10:30:16;;;;;;;14.38;10.15;;;29.80;99.90;;;;;;5028921;28;20052;-63
2023/09/08 10:32:43;;;;;;;11.48;10.27;;;29.70;99.90;;;;;;5030174;28;20045;-63
2023/09/08 10:35:09;;;;;;;14.05;9.15;;;29.80;99.90;;;;;;5032726;28;20045;-62
2023/09/08 10:37:34;;;;;;;10.82;9.73;;;29.60;99.90;;;;;;5031630;28;20029;-62
2023/09/08 10:40:20;;;;;;;11.85;10.23;;;29.60;99.90;;;;;;5030114;28;20396;-62
2023/09/08 10:42:46;;;;;;;14.25;10.80;;;29.60;99.90;;;;;;5028034;28;20037;-63
2023/09/08 10:45:17;;;;;;;12.73;10.60;;;29.60;99.90;;;;;;5030850;28;20041;-62
2023/09/08 10:47:46;;;;;;;15.63;10.27;;;29.60;99.90;;;;;;5033684;28;20037;-63
2023/09/08 10:50:19;;;;;;;14.25;11.15;;;29.60;99.90;;;;;;5031305;28;20487;-63
2023/09/08 10:53:03;;;;;;;13.80;9.90;;;29.70;99.90;;;;;;5028945;28;20574;-62
2023/09/08 10:55:48;;;;;;;11.48;10.15;;;29.70;99.90;;;;;;5029632;28;20458;-63
2023/09/08 10:58:19;;;;;;;14.13;10.33;;;29.90;99.90;;;;;;5030207;28;20038;-62
2023/09/08 11:00:54;;;;;;;15.30;10.68;;;29.90;99.90;;;;;;5027465;28;20054;-62
2023/09/08 11:03:49;;;;;;;11.40;9.63;;;29.80;99.90;;;;;;5031706;28;20049;-63
2023/09/08 11:06:18;;;;;;;11.27;10.13;;;29.90;99.90;;;;;;5030495;28;20295;-63
2023/09/08 11:08:45;;;;;;;12.10;10.90;;;30.00;99.90;;;;;;5029885;28;20048;-63
2023/09/08 11:11:15;;;;;;;12.68;9.93;;;29.90;99.90;;;;;;5028271;28;20604;-63
2023/09/08 11:13:41;;;;;;;10.00;8.90;;;29.70;99.90;;;;;;5030488;28;20098;-62
2023/09/08 11:16:07;;;;;;;11.25;10.13;;;29.70;99.90;;;;;;5028652;28;20045;-62
2023/09/08 11:18:34;;;;;;;16.20;10.15;;;29.70;99.90;;;;;;5030384;28;20037;-63
2023/09/08 11:21:02;;;;;;;10.05;8.82;;;29.70;99.90;;;;;;5028600;28;20104;-62
2023/09/08 11:23:27;;;;;;;13.98;9.30;;;29.70;99.90;;;;;;5028547;28;20045;-62
2023/09/08 11:25:53;;;;;;;11.85;8.18;;;29.90;99.90;;;;;;5030167;28;20041;-61
2023/09/08 11:28:21;;;;;;;9.50;7.35;;;29.80;99.90;;;;;;5028247;28;20084;-61
2023/09/08 11:30:48;;;;;;;11.05;8.75;;;29.90;99.90;;;;;;5030393;28;20047;-61
2023/09/08 11:33:15;;;;;;;13.63;7.18;;;30.10;99.90;;;;;;5030860;28;20055;-61
2023/09/08 11:35:43;;;;;;;13.93;8.05;;;30.20;99.90;;;;;;5028579;28;20041;-61
2023/09/08 11:38:10;;;;;;;9.30;7.15;;;30.30;99.90;;;;;;5029278;28;20103;-62
2023/09/08 11:40:36;;;;;;;7.70;6.18;;;30.30;99.90;;;;;;5028144;28;20056;-62
2023/09/08 11:43:03;;;;;;;7.60;6.78;;;30.40;99.90;;;;;;5032372;28;20041;-62
2023/09/08 11:45:30;;;;;;;8.80;6.32;;;30.50;99.90;;;;;;5029828;28;20617;-61
2023/09/08 11:47:56;;;;;;;8.65;6.80;;;30.50;99.90;;;;;;5028238;28;20041;-62
2023/09/08 11:50:23;;;;;;;7.25;6.55;;;30.50;99.90;;;;;;5027736;28;20492;-62
2023/09/08 11:52:50;;;;;;;8.13;6.30;;;30.50;99.90;;;;;;5027034;28;20040;-63
2023/09/08 11:55:17;;;;;;;7.38;5.78;;;30.40;99.90;;;;;;5027908;28;20037;-62
2023/09/08 11:57:45;;;;;;;7.82;6.15;;;30.40;99.90;;;;;;5021532;28;20685;-62
2023/09/08 12:00:16;;;;;;;7.93;6.05;;;30.50;99.90;;;;;;5022086;28;20062;-63
2023/09/08 12:02:41;;;;;;;8.07;6.00;;;30.50;99.90;;;;;;5021463;28;20115;-62
2023/09/08 12:05:22;;;;;;;6.65;5.95;;;30.50;99.90;;;;;;5021414;28;20502;-63
2023/09/08 12:07:52;;;;;;;6.97;5.63;;;30.50;99.90;;;;;;5021192;28;20136;-63
2023/09/08 12:10:18;;;;;;;11.30;5.65;;;30.50;99.90;;;;;;5021034;28;20033;-63
2023/09/08 12:12:49;;;;;;;7.90;5.18;;;30.40;99.90;;;;;;5023324;28;20029;-63
2023/09/08 12:15:34;;;;;;;7.30;5.57;;;30.40;99.90;;;;;;5022095;28;20037;-62
2023/09/08 12:18:07;;;;;;;8.13;5.72;;;30.40;99.90;;;;;;5022675;28;20046;-63
2023/09/08 12:20:34;;;;;;;7.35;5.47;;;30.50;99.90;;;;;;5018004;28;20041;-62
2023/09/08 12:23:15;;;;;;;8.40;5.80;;;30.40;99.90;;;;;;5020248;28;20033;-62
2023/09/08 12:25:48;;;;;;;7.43;5.20;;;30.40;99.90;;;;;;5021152;28;20053;-62
2023/09/08 12:28:16;;;;;;;8.05;5.10;;;30.60;99.90;;;;;;5019091;28;20045;-62
2023/09/08 12:30:43;;;;;;;11.73;4.80;;;30.50;99.90;;;;;;5020411;28;20140;-61